Time;durP1;ratioP1;P1;durP2;ratioP2;P2;SDS_P1;SDS_P2;PMS_P1;PMS_P2;Temp;Humidity;BMP_temperature;BMP_pressure;BME280_temperature;BME280_humidity;BME280_pressure;Samples;Min_cycle;Max_cycle;Signal;HPM_P1;HPM_P2
2021/12/18 00:01:28;;;;;;;17.77;7.60;;;6.80;99.90;;;;;;5055191;28;20457;-75
2021/12/18 00:03:54;;;;;;;19.73;8.02;;;7.20;99.90;;;;;;5036832;28;20106;-75
2021/12/18 00:06:21;;;;;;;18.25;6.97;;;7.20;99.90;;;;;;5055349;28;20044;-75
2021/12/18 00:08:48;;;;;;;18.25;6.50;;;6.80;99.90;;;;;;5036921;28;20041;-75
2021/12/18 00:11:15;;;;;;;14.65;6.55;;;6.80;99.90;;;;;;5037090;28;20044;-75
2021/12/18 00:13:40;;;;;;;14.38;6.30;;;6.80;99.90;;;;;;5055150;28;20509;-76
2021/12/18 00:16:07;;;;;;;14.07;6.13;;;6.80;99.90;;;;;;5038138;28;20049;-80
2021/12/18 00:18:34;;;;;;;17.45;6.65;;;6.80;99.90;;;;;;5037220;28;20052;-77
2021/12/18 00:21:01;;;;;;;13.35;4.72;;;6.80;99.90;;;;;;5036970;28;20045;-80
2021/12/18 00:23:27;;;;;;;12.65;4.82;;;6.80;99.90;;;;;;5037242;28;20087;-79
2021/12/18 00:25:53;;;;;;;13.23;4.93;;;7.60;99.90;;;;;;5036546;28;20044;-80
2021/12/18 00:28:18;;;;;;;10.85;4.03;;;6.80;99.90;;;;;;5054594;28;20045;-79
2021/12/18 00:30:44;;;;;;;12.88;4.35;;;6.80;99.90;;;;;;5036385;28;20053;-80
2021/12/18 00:33:10;;;;;;;14.68;5.32;;;6.80;99.90;;;;;;5036758;28;20106;-81
2021/12/18 00:35:36;;;;;;;24.73;5.90;;;6.80;99.90;;;;;;5054525;28;20120;-78
2021/12/18 00:38:05;;;;;;;23.45;5.50;;;6.80;99.90;;;;;;5036901;28;20119;-77
2021/12/18 00:40:43;;;;;;;49.67;6.18;;;6.80;99.90;;;;;;5036294;28;20128;-81
2021/12/18 00:43:23;;;;;;;36.13;5.10;;;6.80;99.90;;;;;;5054382;28;20091;-81
2021/12/18 00:45:50;;;;;;;24.48;4.80;;;7.00;99.90;;;;;;5054145;28;20048;-78
2021/12/18 00:48:16;;;;;;;24.50;5.03;;;7.00;99.90;;;;;;5054358;28;20041;-81
2021/12/18 00:50:42;;;;;;;38.58;4.70;;;6.80;99.90;;;;;;5036448;28;20083;-79
2021/12/18 00:53:08;;;;;;;32.60;4.70;;;7.00;99.90;;;;;;5054453;28;20036;-79
2021/12/18 00:55:36;;;;;;;35.75;5.63;;;6.80;99.90;;;;;;5019467;28;20057;-76
2021/12/18 00:58:02;;;;;;;20.98;4.97;;;7.50;99.90;;;;;;5053349;28;20074;-81
2021/12/18 01:00:28;;;;;;;16.02;4.22;;;6.80;99.90;;;;;;5053724;28;20135;-80
2021/12/18 01:02:58;;;;;;;15.38;4.25;;;6.80;99.90;;;;;;5036092;28;20166;-77
2021/12/18 01:05:25;;;;;;;11.10;3.38;;;6.80;99.90;;;;;;5019969;28;20060;-78
2021/12/18 01:07:54;;;;;;;12.13;3.95;;;6.80;99.90;;;;;;5053885;28;20056;-77
2021/12/18 01:13:07;;;;;;;10.32;3.28;;;6.80;99.90;;;;;;5053305;28;20053;-77
2021/12/18 01:15:38;;;;;;;10.00;2.72;;;6.70;99.90;;;;;;5053837;28;20055;-77
2021/12/18 01:23:34;;;;;;;8.70;2.30;;;6.70;99.90;;;;;;5053877;28;20122;-78
2021/12/18 01:26:03;;;;;;;9.02;2.25;;;6.70;99.90;;;;;;5053831;28;20079;-81
2021/12/18 01:28:29;;;;;;;8.48;2.33;;;6.70;99.90;;;;;;5053035;28;20123;-75
2021/12/18 01:30:55;;;;;;;7.38;2.20;;;7.50;99.90;;;;;;5035624;28;20092;-76
2021/12/18 01:33:21;;;;;;;8.10;2.15;;;6.70;99.90;;;;;;5035613;28;20436;-75
2021/12/18 01:35:47;;;;;;;6.30;1.83;;;6.90;99.90;;;;;;5053383;28;20045;-75
2021/12/18 01:38:14;;;;;;;7.88;2.50;;;6.60;99.90;;;;;;5035779;28;20057;-76
2021/12/18 01:40:40;;;;;;;8.93;2.38;;;6.60;99.90;;;;;;5053616;28;20398;-76
2021/12/18 01:51:17;;;;;;;11.27;3.33;;;6.70;99.90;;;;;;5035069;28;20508;-77
2021/12/18 01:53:44;;;;;;;8.85;2.85;;;6.60;99.90;;;;;;5053144;28;20076;-76
2021/12/18 01:56:10;;;;;;;10.23;2.85;;;7.50;99.90;;;;;;5053022;28;20060;-77
2021/12/18 01:58:36;;;;;;;9.80;2.80;;;7.00;99.90;;;;;;5053177;28;20045;-75
2021/12/18 02:01:04;;;;;;;10.07;3.13;;;6.60;99.90;;;;;;5052678;28;20049;-77
2021/12/18 02:03:31;;;;;;;13.23;2.67;;;6.60;99.90;;;;;;5035432;28;20478;-80
2021/12/18 02:05:56;;;;;;;13.85;3.65;;;6.60;99.90;;;;;;5053319;28;20040;-78
2021/12/18 02:08:26;;;;;;;12.48;2.97;;;6.60;99.90;;;;;;5035176;28;20191;-77
2021/12/18 02:21:47;;;;;;;8.77;2.70;;;6.60;99.90;;;;;;5052977;28;20041;-80
2021/12/18 02:24:14;;;;;;;10.10;3.00;;;6.50;99.90;;;;;;5052616;28;20107;-79
2021/12/18 02:26:40;;;;;;;9.98;3.17;;;6.90;99.90;;;;;;5053040;28;20076;-79
2021/12/18 02:29:05;;;;;;;9.70;3.10;;;6.50;99.90;;;;;;5034856;28;20080;-79
2021/12/18 02:31:31;;;;;;;11.10;3.22;;;6.50;99.90;;;;;;5034133;28;20440;-80
2021/12/18 02:33:57;;;;;;;9.27;2.45;;;6.90;99.90;;;;;;5034810;28;20083;-78
2021/12/18 02:36:24;;;;;;;9.05;2.80;;;6.50;99.90;;;;;;5035410;28;20366;-79
2021/12/18 02:41:40;;;;;;;8.77;2.60;;;6.50;99.90;;;;;;5052867;28;20492;-78
2021/12/18 02:44:09;;;;;;;8.82;2.47;;;6.50;99.90;;;;;;5034832;28;20052;-80
2021/12/18 02:46:36;;;;;;;8.80;2.47;;;6.50;99.90;;;;;;5052916;28;20060;-78
2021/12/18 02:49:13;;;;;;;8.02;2.45;;;7.00;99.90;;;;;;5034206;28;20064;-78
2021/12/18 02:51:39;;;;;;;7.13;2.00;;;7.00;99.90;;;;;;5052193;28;20427;-80
2021/12/18 02:54:05;;;;;;;7.63;2.10;;;6.50;99.90;;;;;;5034802;28;20074;-80
2021/12/18 02:56:31;;;;;;;9.40;2.25;;;6.50;99.90;;;;;;5052354;28;20094;-81
2021/12/18 02:59:07;;;;;;;7.65;2.03;;;6.50;99.90;;;;;;5052665;28;20045;-78
2021/12/18 03:01:35;;;;;;;7.15;2.10;;;6.50;99.90;;;;;;5052506;28;20082;-79
2021/12/18 03:04:11;;;;;;;8.60;1.73;;;6.80;99.90;;;;;;5017806;28;20052;-80
2021/12/18 03:06:41;;;;;;;9.90;2.20;;;7.00;99.90;;;;;;5052256;28;20095;-80
2021/12/18 03:22:56;;;;;;;7.32;2.40;;;6.50;99.90;;;;;;5052526;28;20390;-80
2021/12/18 03:27:48;;;;;;;8.98;2.35;;;7.10;99.90;;;;;;5055982;28;20119;-79
2021/12/18 03:30:15;;;;;;;8.02;2.53;;;6.50;99.90;;;;;;5055764;28;20053;-79
2021/12/18 03:32:41;;;;;;;8.93;3.20;;;6.60;99.90;;;;;;5038087;28;20044;-77
2021/12/18 03:35:08;;;;;;;9.98;2.95;;;6.90;99.90;;;;;;5055121;28;20037;-80
2021/12/18 03:37:35;;;;;;;11.82;3.22;;;6.50;99.90;;;;;;5055554;28;20392;-78
2021/12/18 03:40:05;;;;;;;10.85;2.70;;;6.50;99.90;;;;;;5055421;28;20542;-80
2021/12/18 03:42:32;;;;;;;10.40;2.50;;;6.60;99.90;;;;;;5055627;28;20420;-79
2021/12/18 03:44:58;;;;;;;8.80;2.22;;;6.60;99.90;;;;;;5037528;28;20401;-79
2021/12/18 03:47:25;;;;;;;9.10;2.38;;;6.50;99.90;;;;;;5037329;28;20053;-79
2021/12/18 03:49:51;;;;;;;8.13;2.33;;;6.60;99.90;;;;;;5055581;28;20099;-80
2021/12/18 03:52:16;;;;;;;9.70;2.05;;;6.50;99.90;;;;;;5036948;28;20045;-78
2021/12/18 03:54:42;;;;;;;7.20;1.95;;;6.50;99.90;;;;;;5037644;28;20131;-79
2021/12/18 03:57:07;;;;;;;7.03;1.85;;;6.50;99.90;;;;;;5055191;28;20545;-78
2021/12/18 03:59:33;;;;;;;9.93;2.20;;;7.00;99.90;;;;;;5037498;28;20500;-78
2021/12/18 04:01:59;;;;;;;6.15;1.88;;;6.50;99.90;;;;;;5037067;28;20408;-75
2021/12/18 04:04:25;;;;;;;8.38;2.20;;;6.40;99.90;;;;;;5037344;28;20075;-77
2021/12/18 04:06:51;;;;;;;11.65;2.67;;;6.40;99.90;;;;;;5036992;28;20076;-80
2021/12/18 04:09:16;;;;;;;10.85;2.28;;;6.40;99.90;;;;;;5020303;28;20056;-80
2021/12/18 04:11:42;;;;;;;9.30;2.13;;;6.40;99.90;;;;;;5054932;28;20048;-76
2021/12/18 04:14:10;;;;;;;7.72;1.85;;;6.40;99.90;;;;;;5055209;28;20045;-76
2021/12/18 04:16:36;;;;;;;7.60;1.70;;;6.40;99.90;;;;;;5054894;28;20128;-76
2021/12/18 04:19:02;;;;;;;8.32;2.10;;;6.40;99.90;;;;;;5037298;28;20128;-77
2021/12/18 04:21:29;;;;;;;8.95;2.35;;;6.40;99.90;;;;;;5054697;28;20037;-76
2021/12/18 04:23:55;;;;;;;8.57;2.00;;;6.40;99.90;;;;;;5036586;28;20053;-75
2021/12/18 04:26:21;;;;;;;10.48;2.42;;;6.40;99.90;;;;;;5055025;28;20414;-74
2021/12/18 04:28:46;;;;;;;11.52;2.38;;;6.40;99.90;;;;;;5036698;28;20049;-75
2021/12/18 04:31:12;;;;;;;8.75;2.35;;;6.40;99.90;;;;;;5036649;28;20111;-77
2021/12/18 04:33:38;;;;;;;8.10;2.00;;;6.30;99.90;;;;;;5037045;28;20118;-76
2021/12/18 04:36:05;;;;;;;8.82;2.35;;;6.30;99.90;;;;;;5053973;28;20041;-77
2021/12/18 04:38:31;;;;;;;6.63;2.00;;;6.30;99.90;;;;;;5054084;28;20401;-75
2021/12/18 04:40:58;;;;;;;11.57;2.65;;;6.40;99.90;;;;;;5036599;28;20045;-75
2021/12/18 04:43:24;;;;;;;10.77;2.65;;;6.70;99.90;;;;;;5036728;28;20063;-75
2021/12/18 04:45:50;;;;;;;10.68;2.72;;;6.40;99.90;;;;;;5036500;28;20037;-74
2021/12/18 04:48:15;;;;;;;9.80;3.13;;;6.40;99.90;;;;;;5054315;28;20048;-77
2021/12/18 04:50:42;;;;;;;11.23;4.00;;;6.40;99.90;;;;;;5054365;28;20468;-76
2021/12/18 04:53:09;;;;;;;12.63;3.92;;;6.40;99.90;;;;;;5036381;28;20095;-75
2021/12/18 04:55:35;;;;;;;14.38;4.70;;;6.60;99.90;;;;;;5036167;28;20082;-76
2021/12/18 04:58:00;;;;;;;17.90;4.90;;;6.40;99.90;;;;;;5036156;28;20060;-80
2021/12/18 05:00:36;;;;;;;12.48;5.10;;;6.50;99.90;;;;;;5036290;28;20408;-79
2021/12/18 05:03:05;;;;;;;13.25;5.10;;;6.40;99.90;;;;;;5036406;28;20053;-80
2021/12/18 05:05:31;;;;;;;13.43;4.45;;;6.40;99.90;;;;;;5054171;28;20056;-77
2021/12/18 05:07:57;;;;;;;15.63;4.88;;;6.50;99.90;;;;;;5037145;28;20057;-79
2021/12/18 05:10:23;;;;;;;10.05;4.03;;;6.50;99.90;;;;;;5035652;28;20412;-80
2021/12/18 05:12:48;;;;;;;12.98;4.30;;;6.50;99.90;;;;;;5036029;28;20103;-79
2021/12/18 05:15:14;;;;;;;12.77;4.00;;;6.50;99.90;;;;;;5035964;28;20040;-80
2021/12/18 05:17:40;;;;;;;11.98;4.05;;;6.50;99.90;;;;;;5035995;28;20041;-79
2021/12/18 05:20:06;;;;;;;11.20;4.68;;;6.50;99.90;;;;;;5036286;28;20053;-80
2021/12/18 05:22:32;;;;;;;12.55;4.13;;;6.50;99.90;;;;;;5053798;28;20513;-79
2021/12/18 05:24:58;;;;;;;11.20;4.38;;;6.80;99.90;;;;;;5035398;28;20065;-79
2021/12/18 05:27:23;;;;;;;10.00;4.00;;;6.60;99.90;;;;;;5053058;28;20047;-78
2021/12/18 05:29:49;;;;;;;13.35;4.30;;;6.60;99.90;;;;;;5053586;28;20053;-79
2021/12/18 05:32:15;;;;;;;11.65;4.15;;;6.60;99.90;;;;;;5053493;28;20467;-79
2021/12/18 05:34:41;;;;;;;10.98;4.32;;;6.60;99.90;;;;;;5053547;28;20052;-73
2021/12/18 05:37:19;;;;;;;10.90;3.70;;;6.60;99.90;;;;;;5034977;28;20056;-77
2021/12/18 05:39:47;;;;;;;10.55;3.97;;;6.60;99.90;;;;;;5035375;28;20119;-77
2021/12/18 05:42:14;;;;;;;11.10;3.92;;;6.60;99.90;;;;;;5053059;28;20083;-80
2021/12/18 05:44:40;;;;;;;11.82;3.80;;;6.60;99.90;;;;;;5053450;28;20408;-76
2021/12/18 05:47:06;;;;;;;9.32;3.60;;;6.60;99.90;;;;;;5018854;28;20045;-73
2021/12/18 05:49:32;;;;;;;9.02;3.70;;;6.70;99.90;;;;;;5052812;28;20047;-80
2021/12/18 05:51:58;;;;;;;9.50;3.20;;;6.70;99.90;;;;;;5035115;28;20527;-80
2021/12/18 05:54:23;;;;;;;11.13;3.80;;;6.70;99.90;;;;;;5053121;28;20045;-80
2021/12/18 05:56:49;;;;;;;9.13;3.22;;;6.70;99.90;;;;;;5053145;28;20131;-78
2021/12/18 05:59:15;;;;;;;9.20;3.45;;;6.70;99.90;;;;;;5035140;28;20049;-80
2021/12/18 06:01:41;;;;;;;10.23;4.03;;;7.00;99.90;;;;;;5035302;28;20546;-73
2021/12/18 06:04:07;;;;;;;9.55;3.60;;;6.70;99.90;;;;;;5052967;28;20120;-78
2021/12/18 06:06:33;;;;;;;11.60;5.10;;;6.70;99.90;;;;;;5035442;28;20127;-79
2021/12/18 06:08:59;;;;;;;12.02;5.00;;;6.70;99.90;;;;;;5044530;28;20044;-78
2021/12/18 06:11:27;;;;;;;11.52;4.88;;;6.80;99.90;;;;;;5052918;28;20048;-79
2021/12/18 06:13:54;;;;;;;12.35;5.85;;;6.80;99.90;;;;;;5034421;28;20049;-79
2021/12/18 06:16:20;;;;;;;12.45;5.60;;;6.80;99.90;;;;;;5052883;28;20037;-79
2021/12/18 06:18:50;;;;;;;12.18;5.03;;;7.50;99.90;;;;;;5053028;28;20045;-77
2021/12/18 06:21:17;;;;;;;9.82;4.07;;;6.80;99.90;;;;;;5052723;28;20053;-77
2021/12/18 06:23:46;;;;;;;471.20;93.28;;;6.80;99.90;;;;;;5052576;28;20059;-77
2021/12/18 06:26:13;;;;;;;10.95;4.05;;;6.90;99.90;;;;;;5052790;28;20488;-80
2021/12/18 06:28:39;;;;;;;11.27;4.50;;;6.80;99.90;;;;;;5052615;28;20045;-77
2021/12/18 06:31:05;;;;;;;13.57;4.07;;;6.90;99.90;;;;;;5034564;28;20115;-76
2021/12/18 06:33:30;;;;;;;13.75;4.00;;;6.80;99.90;;;;;;5035151;28;20124;-79
2021/12/18 06:35:57;;;;;;;11.90;3.95;;;6.90;99.90;;;;;;5052840;28;20108;-79
2021/12/18 06:38:23;;;;;;;11.27;4.35;;;7.20;99.90;;;;;;5052493;28;20052;-79
2021/12/18 06:40:49;;;;;;;10.63;4.13;;;6.90;99.90;;;;;;5052978;28;20120;-80
2021/12/18 06:43:15;;;;;;;11.45;3.97;;;6.90;99.90;;;;;;5052897;28;20123;-80
2021/12/18 06:45:41;;;;;;;8.30;4.10;;;6.90;99.90;;;;;;5034397;28;20445;-79
2021/12/18 06:48:06;;;;;;;10.50;4.32;;;6.90;99.90;;;;;;5034666;28;20045;-80
2021/12/18 06:50:33;;;;;;;12.73;4.03;;;7.40;99.90;;;;;;5034474;28;20441;-80
2021/12/18 06:52:59;;;;;;;14.30;4.00;;;6.90;99.90;;;;;;5018272;28;20052;-75
2021/12/18 06:55:25;;;;;;;15.93;4.35;;;6.90;99.90;;;;;;5034648;28;20182;-79
2021/12/18 06:57:51;;;;;;;12.02;3.50;;;6.90;99.90;;;;;;5034781;28;20416;-77
2021/12/18 07:00:18;;;;;;;9.60;3.38;;;7.40;99.90;;;;;;5037169;28;20045;-78
2021/12/18 07:02:44;;;;;;;11.43;3.60;;;6.90;99.90;;;;;;5038251;28;20040;-74
2021/12/18 07:05:10;;;;;;;11.13;3.20;;;6.90;99.90;;;;;;5056074;28;20187;-76
2021/12/18 07:07:37;;;;;;;10.95;3.25;;;6.80;99.90;;;;;;5056142;28;20056;-76
2021/12/18 07:10:09;;;;;;;9.65;3.15;;;6.90;99.90;;;;;;5056033;28;20124;-75
2021/12/18 07:12:34;;;;;;;9.48;3.03;;;6.90;99.90;;;;;;5056506;28;20044;-74
2021/12/18 07:15:01;;;;;;;9.23;3.00;;;6.90;99.90;;;;;;5056295;28;20374;-75
2021/12/18 07:17:27;;;;;;;11.20;3.30;;;6.90;99.90;;;;;;5037436;28;20041;-75
2021/12/18 07:19:52;;;;;;;11.63;3.35;;;6.80;99.90;;;;;;5055758;28;20044;-75
2021/12/18 07:22:18;;;;;;;11.63;3.20;;;6.90;99.90;;;;;;5038066;28;20048;-76
2021/12/18 07:24:44;;;;;;;8.57;2.70;;;6.90;99.90;;;;;;5037884;28;20115;-75
2021/12/18 07:27:09;;;;;;;12.20;3.80;;;6.90;99.90;;;;;;5038111;28;20040;-73
2021/12/18 07:29:35;;;;;;;11.90;2.85;;;7.00;99.90;;;;;;5021354;28;20045;-76
2021/12/18 07:32:01;;;;;;;9.05;2.53;;;6.90;99.90;;;;;;5055531;28;20044;-76
2021/12/18 07:34:27;;;;;;;13.70;3.10;;;6.90;99.90;;;;;;5055562;28;20412;-75
2021/12/18 07:36:53;;;;;;;9.73;2.97;;;6.90;99.90;;;;;;5055655;28;20041;-73
2021/12/18 07:39:18;;;;;;;8.85;2.83;;;6.90;99.90;;;;;;5055521;28;20041;-74
2021/12/18 07:41:44;;;;;;;10.38;3.08;;;6.90;99.90;;;;;;5037811;28;20135;-75
2021/12/18 07:44:10;;;;;;;11.35;3.22;;;6.90;99.90;;;;;;5037667;28;20125;-76
2021/12/18 07:46:38;;;;;;;9.50;2.70;;;7.00;99.90;;;;;;5037876;28;20045;-74
2021/12/18 07:49:05;;;;;;;10.98;3.28;;;7.00;99.90;;;;;;5037092;28;20045;-73
2021/12/18 07:51:31;;;;;;;13.45;3.65;;;7.00;99.90;;;;;;5055394;28;20131;-75
2021/12/18 07:53:57;;;;;;;12.02;3.45;;;7.00;99.90;;;;;;5020854;28;20033;-80
2021/12/18 07:56:24;;;;;;;11.00;3.58;;;7.00;99.90;;;;;;5054954;28;20056;-74
2021/12/18 07:58:51;;;;;;;13.52;3.90;;;7.00;99.90;;;;;;5055505;28;20049;-73
2021/12/18 08:01:17;;;;;;;10.50;3.42;;;7.10;99.90;;;;;;5037259;28;20114;-77
2021/12/18 08:03:42;;;;;;;17.55;5.25;;;7.10;99.90;;;;;;5037177;28;20049;-75
2021/12/18 08:06:08;;;;;;;13.48;5.10;;;7.10;99.90;;;;;;5037192;28;20124;-79
2021/12/18 08:08:34;;;;;;;11.63;3.72;;;7.10;99.90;;;;;;5054882;28;20045;-76
2021/12/18 08:11:00;;;;;;;12.35;4.07;;;7.40;99.90;;;;;;5035114;28;20052;-76
2021/12/18 08:13:26;;;;;;;16.25;6.65;;;7.10;99.90;;;;;;5035018;28;20124;-75
2021/12/18 08:15:51;;;;;;;14.32;5.85;;;7.10;99.90;;;;;;5034921;28;20045;-76
2021/12/18 08:18:17;;;;;;;17.35;6.22;;;7.20;99.90;;;;;;5035198;28;20041;-79
2021/12/18 08:20:43;;;;;;;14.50;5.22;;;7.20;99.90;;;;;;5034104;28;20075;-75
2021/12/18 08:23:09;;;;;;;12.48;4.97;;;7.20;99.90;;;;;;5054939;28;20123;-80
2021/12/18 08:25:35;;;;;;;13.43;4.82;;;7.30;99.90;;;;;;5036813;28;20056;-76
2021/12/18 08:28:03;;;;;;;14.38;4.90;;;7.30;99.90;;;;;;5054623;28;20477;-77
2021/12/18 08:30:30;;;;;;;11.90;5.25;;;7.30;99.90;;;;;;5054644;28;20045;-75
2021/12/18 08:32:58;;;;;;;13.25;5.80;;;7.30;99.90;;;;;;5054808;28;20045;-74
2021/12/18 08:35:25;;;;;;;14.60;6.00;;;7.40;99.90;;;;;;5054422;28;20057;-75
2021/12/18 08:37:52;;;;;;;12.48;6.22;;;7.40;99.90;;;;;;5054406;28;20044;-77
2021/12/18 08:40:18;;;;;;;17.33;6.43;;;7.80;99.90;;;;;;5036649;28;20045;-75
2021/12/18 08:42:44;;;;;;;11.52;3.67;;;7.50;99.90;;;;;;5054424;28;20047;-72
2021/12/18 08:45:11;;;;;;;9.05;3.10;;;7.50;99.90;;;;;;5054325;28;20041;-75
2021/12/18 08:47:38;;;;;;;11.77;3.70;;;7.50;99.90;;;;;;5054287;28;20047;-76
2021/12/18 08:50:05;;;;;;;11.10;3.38;;;7.60;99.90;;;;;;5054332;28;20098;-77
2021/12/18 08:52:30;;;;;;;12.23;4.03;;;7.60;99.90;;;;;;5053923;28;20431;-75
2021/12/18 08:54:56;;;;;;;13.50;4.38;;;8.00;99.90;;;;;;5036347;28;20107;-78
2021/12/18 08:57:22;;;;;;;11.52;4.63;;;7.90;99.90;;;;;;5035995;28;20382;-77
2021/12/18 08:59:47;;;;;;;11.88;5.15;;;8.10;99.90;;;;;;5036286;28;20449;-75
2021/12/18 09:02:14;;;;;;;15.20;6.65;;;7.70;99.90;;;;;;5054158;28;20049;-81
2021/12/18 09:04:40;;;;;;;15.63;6.70;;;7.70;99.90;;;;;;5054168;28;20048;-75
2021/12/18 09:07:07;;;;;;;16.10;5.65;;;7.70;99.90;;;;;;5036269;28;20072;-75
2021/12/18 09:09:32;;;;;;;11.90;5.15;;;7.90;99.90;;;;;;5018906;28;20102;-75
2021/12/18 09:11:58;;;;;;;12.90;4.95;;;7.70;99.90;;;;;;5053948;28;20386;-78
2021/12/18 09:14:24;;;;;;;12.75;4.60;;;7.80;99.90;;;;;;5036290;28;20267;-75
2021/12/18 09:16:52;;;;;;;12.38;4.13;;;7.80;99.90;;;;;;5019184;28;20187;-75
2021/12/18 09:19:18;;;;;;;11.43;4.90;;;7.80;99.90;;;;;;5053875;28;20516;-73
2021/12/18 09:21:44;;;;;;;15.43;5.15;;;8.60;99.90;;;;;;5053630;28;20088;-76
2021/12/18 09:24:10;;;;;;;14.43;4.80;;;7.80;99.90;;;;;;5035655;28;20179;-75
2021/12/18 09:26:35;;;;;;;12.75;5.20;;;8.30;99.90;;;;;;5035757;28;20056;-76
2021/12/18 09:29:02;;;;;;;15.18;5.22;;;7.90;99.90;;;;;;5035623;28;20053;-77
2021/12/18 09:31:27;;;;;;;14.98;5.03;;;7.90;99.90;;;;;;5035958;28;20048;-77
2021/12/18 09:33:53;;;;;;;15.50;5.05;;;7.90;99.90;;;;;;5035534;28;20061;-75
2021/12/18 09:36:19;;;;;;;15.38;5.40;;;8.00;99.90;;;;;;5035678;28;20044;-76
2021/12/18 09:38:45;;;;;;;12.00;5.30;;;8.70;99.90;;;;;;5035230;28;20057;-77
2021/12/18 09:41:11;;;;;;;17.27;5.93;;;8.00;99.90;;;;;;5035162;28;20048;-75
2021/12/18 09:43:38;;;;;;;13.77;5.15;;;8.00;99.90;;;;;;5053196;28;20041;-76
2021/12/18 09:46:07;;;;;;;14.77;6.15;;;8.50;99.90;;;;;;5053483;28;20444;-78
2021/12/18 09:48:34;;;;;;;12.73;4.95;;;8.00;99.90;;;;;;5053308;28;20044;-77
2021/12/18 09:51:05;;;;;;;14.20;4.88;;;8.00;99.90;;;;;;5053246;28;20060;-75
2021/12/18 09:53:31;;;;;;;16.30;4.30;;;8.00;99.90;;;;;;5035299;28;20045;-75
2021/12/18 09:55:57;;;;;;;12.18;3.90;;;8.10;99.90;;;;;;5034838;28;20053;-76
2021/12/18 09:58:22;;;;;;;13.38;4.40;;;8.00;99.90;;;;;;5052932;28;20504;-78
2021/12/18 10:00:48;;;;;;;12.63;4.05;;;8.10;99.90;;;;;;5053198;28;20404;-79
2021/12/18 10:03:14;;;;;;;12.15;4.20;;;8.10;99.90;;;;;;5035150;28;20041;-76
2021/12/18 10:05:40;;;;;;;15.52;4.40;;;8.10;99.90;;;;;;5053098;28;20120;-75
2021/12/18 10:08:15;;;;;;;11.75;4.40;;;8.10;99.90;;;;;;5035021;28;20060;-75
2021/12/18 10:11:08;;;;;;;12.05;3.90;;;9.20;99.90;;;;;;5052581;28;20488;-77
2021/12/18 10:13:55;;;;;;;14.85;4.45;;;8.20;99.90;;;;;;5035162;28;20045;-76
2021/12/18 10:16:23;;;;;;;13.15;4.78;;;8.20;99.90;;;;;;5035003;28;20051;-76
2021/12/18 10:18:50;;;;;;;12.88;3.88;;;8.20;99.90;;;;;;5052860;28;20167;-75
2021/12/18 10:21:22;;;;;;;11.13;4.20;;;8.60;99.90;;;;;;5052857;28;20037;-76
2021/12/18 10:23:50;;;;;;;12.13;3.95;;;8.70;99.90;;;;;;5053077;28;20049;-75
2021/12/18 10:26:29;;;;;;;16.63;4.03;;;8.20;99.90;;;;;;5052647;28;20045;-77
2021/12/18 10:28:55;;;;;;;12.20;3.58;;;8.70;99.90;;;;;;5052509;28;20059;-76
2021/12/18 10:31:43;;;;;;;11.88;3.97;;;8.30;99.90;;;;;;5052853;28;20059;-77
2021/12/18 10:34:17;;;;;;;12.98;3.70;;;8.30;99.90;;;;;;5053694;28;20401;-75
2021/12/18 10:37:10;;;;;;;15.73;4.43;;;8.30;99.90;;;;;;5038876;28;20120;-76
2021/12/18 10:39:38;;;;;;;13.45;3.95;;;8.40;99.90;;;;;;5056673;28;20044;-76
2021/12/18 10:42:25;;;;;;;12.43;4.00;;;8.50;99.90;;;;;;5038392;28;20041;-76
2021/12/18 10:45:12;;;;;;;11.65;3.60;;;8.50;99.90;;;;;;5056569;28;20049;-76
2021/12/18 10:47:54;;;;;;;9.77;3.05;;;8.50;99.90;;;;;;5038666;28;20045;-76
2021/12/18 10:50:26;;;;;;;6.20;1.85;;;8.50;99.90;;;;;;5056215;28;20049;-76
2021/12/18 10:53:03;;;;;;;10.73;2.97;;;8.50;99.90;;;;;;5039058;28;20487;-75
2021/12/18 10:55:41;;;;;;;11.38;3.03;;;8.50;99.90;;;;;;5056670;28;20045;-76
2021/12/18 10:58:09;;;;;;;10.48;2.60;;;8.80;99.90;;;;;;5037574;28;20092;-76
2021/12/18 11:00:34;;;;;;;9.38;2.65;;;8.60;99.90;;;;;;5056190;28;20136;-76
2021/12/18 11:03:32;;;;;;;11.68;2.70;;;8.60;99.90;;;;;;5056009;28;20116;-75
2021/12/18 11:06:24;;;;;;;7.57;2.17;;;8.60;99.90;;;;;;5056221;28;20055;-76
2021/12/18 11:08:59;;;;;;;10.05;3.05;;;8.60;99.90;;;;;;5034961;28;20405;-76
2021/12/18 11:14:02;;;;;;;9.57;3.05;;;8.70;99.90;;;;;;5056115;28;20060;-76
2021/12/18 11:16:28;;;;;;;9.07;2.45;;;8.70;99.90;;;;;;5038055;28;20041;-76
2021/12/18 11:18:55;;;;;;;10.13;3.00;;;8.70;99.90;;;;;;5038263;28;20431;-76
2021/12/18 11:21:24;;;;;;;11.13;3.05;;;8.70;99.90;;;;;;5056375;28;20041;-78
2021/12/18 11:24:01;;;;;;;13.55;3.50;;;8.70;99.90;;;;;;5055889;28;20040;-80
2021/12/18 11:26:33;;;;;;;10.35;3.05;;;8.70;99.90;;;;;;5056081;28;20056;-76
2021/12/18 11:29:00;;;;;;;;;;;8.70;99.90;;;;;;5056270;28;20047;-77
2021/12/18 11:31:26;;;;;;;13.57;3.17;;;8.70;99.90;;;;;;5037379;28;19928;-77
2021/12/18 11:33:52;;;;;;;11.30;3.17;;;8.70;99.90;;;;;;5037604;28;20110;-76
2021/12/18 11:36:18;;;;;;;13.25;3.33;;;8.90;99.90;;;;;;5037865;28;20045;-78
2021/12/18 11:38:45;;;;;;;10.30;3.00;;;8.70;99.90;;;;;;5055605;28;20116;-77
2021/12/18 11:41:18;;;;;;;11.48;3.45;;;8.70;99.90;;;;;;5055839;28;20040;-76
2021/12/18 11:43:46;;;;;;;11.05;3.10;;;8.80;99.90;;;;;;5037710;28;20063;-78
2021/12/18 11:46:34;;;;;;;9.52;3.13;;;9.30;99.90;;;;;;5055021;28;20173;-74
2021/12/18 11:49:05;;;;;;;10.98;3.67;;;8.80;99.90;;;;;;5055197;28;20045;-77
2021/12/18 11:51:32;;;;;;;12.90;3.60;;;8.80;99.90;;;;;;5055407;28;20477;-76
2021/12/18 11:53:59;;;;;;;11.98;3.50;;;8.80;99.90;;;;;;5037590;28;20053;-78
2021/12/18 11:56:25;;;;;;;10.10;3.63;;;8.80;99.90;;;;;;5037369;28;20053;-77
2021/12/18 11:58:52;;;;;;;12.68;3.70;;;8.80;99.90;;;;;;5037316;28;20045;-77
2021/12/18 12:01:27;;;;;;;12.88;3.95;;;8.80;99.90;;;;;;5053274;28;20037;-74
2021/12/18 12:03:53;;;;;;;10.45;3.58;;;9.00;99.90;;;;;;5036842;28;20140;-75
2021/12/18 12:06:19;;;;;;;10.52;3.80;;;8.90;99.90;;;;;;5055032;28;20171;-74
2021/12/18 12:08:45;;;;;;;13.07;3.95;;;8.90;99.90;;;;;;5055582;28;20481;-73
2021/12/18 12:11:26;;;;;;;11.25;3.20;;;8.90;99.90;;;;;;5037132;28;20053;-76
2021/12/18 12:14:13;;;;;;;12.90;3.25;;;8.90;99.90;;;;;;5055354;28;20091;-76
2021/12/18 12:16:45;;;;;;;12.15;3.33;;;8.90;99.90;;;;;;5054960;28;20132;-75
2021/12/18 12:19:13;;;;;;;9.98;2.90;;;8.90;99.90;;;;;;5020267;28;20125;-76
2021/12/18 12:21:46;;;;;;;11.77;3.13;;;8.90;99.90;;;;;;5053951;28;20053;-78
2021/12/18 12:24:13;;;;;;;14.05;3.72;;;8.90;99.90;;;;;;5054871;28;20445;-77
2021/12/18 12:26:38;;;;;;;12.40;3.20;;;9.00;99.90;;;;;;5055140;28;20041;-77
2021/12/18 12:29:06;;;;;;;10.93;3.20;;;9.30;99.90;;;;;;5054479;28;20052;-75
2021/12/18 12:31:33;;;;;;;11.68;2.70;;;8.90;99.90;;;;;;5054880;28;20037;-80
2021/12/18 12:34:22;;;;;;;9.82;2.55;;;9.40;99.90;;;;;;5054199;28;20174;-76
2021/12/18 12:36:48;;;;;;;9.75;2.58;;;8.90;99.90;;;;;;5036415;28;20136;-77
2021/12/18 12:39:15;;;;;;;9.88;4.47;;;9.10;99.90;;;;;;5036521;28;20041;-75
2021/12/18 12:41:51;;;;;;;12.07;3.42;;;8.90;99.90;;;;;;5054374;28;20040;-78
2021/12/18 12:44:24;;;;;;;10.40;2.75;;;9.10;99.90;;;;;;5054400;28;20041;-73
2021/12/18 12:47:13;;;;;;;9.30;2.95;;;8.90;99.90;;;;;;5054557;28;20053;-74
2021/12/18 12:49:39;;;;;;;10.48;3.17;;;8.90;99.90;;;;;;5035895;28;20516;-74
2021/12/18 12:52:13;;;;;;;11.85;2.67;;;8.90;99.90;;;;;;5054332;28;20051;-72
2021/12/18 12:54:50;;;;;;;12.50;2.70;;;8.90;99.90;;;;;;5036402;28;20119;-71
2021/12/18 12:57:26;;;;;;;9.38;2.63;;;9.20;99.90;;;;;;5035150;28;20049;-76
2021/12/18 12:59:58;;;;;;;10.60;3.05;;;8.90;99.90;;;;;;5036645;28;20401;-74
2021/12/18 13:02:25;;;;;;;9.63;2.88;;;8.90;99.90;;;;;;5036606;28;20120;-75
2021/12/18 13:05:08;;;;;;;11.98;2.70;;;9.40;99.90;;;;;;5035571;28;20059;-75
2021/12/18 13:07:35;;;;;;;9.65;2.50;;;8.90;99.90;;;;;;5035511;28;20501;-76
2021/12/18 13:10:02;;;;;;;12.02;2.58;;;8.90;99.90;;;;;;5036315;28;20055;-75
2021/12/18 13:12:28;;;;;;;11.32;3.05;;;8.90;99.90;;;;;;5053974;28;20053;-73
2021/12/18 13:14:55;;;;;;;9.95;2.70;;;8.90;99.90;;;;;;5053925;28;20052;-73
2021/12/18 13:17:23;;;;;;;9.73;3.22;;;8.90;99.90;;;;;;5053737;28;20080;-76
2021/12/18 13:20:07;;;;;;;11.02;2.90;;;8.90;99.90;;;;;;5053707;28;20131;-75
2021/12/18 13:22:33;;;;;;;11.27;2.60;;;8.90;99.90;;;;;;5053500;28;20045;-77
2021/12/18 13:25:07;;;;;;;8.25;2.85;;;8.90;99.90;;;;;;5052183;28;20078;-73
2021/12/18 13:27:34;;;;;;;13.75;2.90;;;8.90;99.90;;;;;;5053652;28;20047;-77
2021/12/18 13:30:13;;;;;;;13.30;4.85;;;8.80;99.90;;;;;;5053384;28;20049;-76
2021/12/18 13:33:04;;;;;;;13.30;3.67;;;8.80;99.90;;;;;;5035963;28;20045;-77
2021/12/18 13:35:33;;;;;;;13.32;3.58;;;8.80;99.90;;;;;;5035666;28;20052;-75
2021/12/18 13:38:03;;;;;;;11.18;2.88;;;8.80;99.90;;;;;;5034509;28;20064;-75
2021/12/18 13:40:31;;;;;;;8.80;2.80;;;8.80;99.90;;;;;;5053272;28;20045;-77
2021/12/18 13:43:06;;;;;;;10.07;3.08;;;8.80;99.90;;;;;;5053519;28;20056;-75
2021/12/18 13:45:33;;;;;;;9.35;2.72;;;8.80;99.90;;;;;;5053385;28;20091;-74